To NAV CANADA Home Page Login to a new session Search on AWWS site Disclaimer Vers la page française équivalente Tips FAQ What's new on the site To the Forecasts and Observations / NOTAM section To "File a Flight Plan" website Publications and other links Update of the User's profile FIC Telephone Numbers My Weather Data Folder Route Weather Data Regional Weather Data Local Weather Data To the Forecasts and Observations / NOTAM section
Request Generated 03/19/2019 at 23:24:47 UTC . Weather information available at that time is displayed.

METAR/TAF

REGINA INTL/SK    

METAR CYQR 192300Z 27011KT 15SM SCT270 07/02 A3002 RMK CI3 SLP194=
METAR CYQR 192200Z 28014KT 15SM SCT200 07/02 A3003 RMK CI3 SLP201=
METAR CYQR 192100Z 28012G17KT 15SM FEW200 FEW270 07/02 A3005 RMK CI1CI1 CI TR CI TR SLP204=

TAF CYQR 191738Z 1918/2018 24012KT P6SM FEW250
BECMG 1919/1921 30015G25KT
BECMG 2001/2003 32010KT
FM200600 32008KT P6SM SKC
BECMG 2009/2011 VRB03KT
BECMG 2013/2015 22007KT
RMK NXT FCST BY 200000Z=
Your time UTC time
Weather data provided by Environment Canada and NAV CANADA